createdAt,value
2024-01-01T00:01:58.324Z,91.36
2024-01-01T00:04:27.834Z,91.72
2024-01-01T00:06:54.613Z,91.33
2024-01-01T00:09:21.386Z,91.96
2024-01-01T00:11:48.465Z,91.44
2024-01-01T00:14:15.491Z,91.32
2024-01-01T00:16:43.175Z,91.83
2024-01-01T00:19:10.426Z,91.57
2024-01-01T00:21:37.251Z,91.93
2024-01-01T00:24:04.104Z,91.61
2024-01-01T00:26:30.961Z,91.67
2024-01-01T00:28:57.796Z,92.00
2024-01-01T00:31:24.646Z,91.55
2024-01-01T00:33:51.727Z,92.01
2024-01-01T00:36:18.704Z,91.92
2024-01-01T00:38:46.042Z,91.60
2024-01-01T00:41:17.644Z,91.91
2024-01-01T00:43:44.744Z,91.88
2024-01-01T00:46:12.280Z,92.41
2024-01-01T00:48:39.466Z,91.68
2024-01-01T00:51:06.621Z,92.05
2024-01-01T00:53:34.913Z,91.71
2024-01-01T00:56:01.923Z,92.21
2024-01-01T00:58:28.887Z,92.10
2024-01-01T01:00:57.743Z,92.36
2024-01-01T01:03:25.011Z,92.35
2024-01-01T01:05:52.314Z,92.31
2024-01-01T01:08:19.449Z,92.34
2024-01-01T01:10:47.321Z,92.11
2024-01-01T01:13:14.129Z,92.40
2024-01-01T01:15:40.934Z,92.65
2024-01-01T01:18:09.120Z,92.48
2024-01-01T01:20:36.207Z,92.40
2024-01-01T01:23:03.437Z,92.58
2024-01-01T01:25:31.304Z,92.41
2024-01-01T01:27:59.233Z,92.63
2024-01-01T01:30:26.089Z,92.74
2024-01-01T01:32:53.016Z,92.92
2024-01-01T01:35:19.891Z,93.03
2024-01-01T01:37:46.694Z,93.18
2024-01-01T01:40:13.850Z,93.00
2024-01-01T01:42:40.929Z,92.78
2024-01-01T01:45:08.250Z,93.16
2024-01-01T01:47:36.769Z,92.79
2024-01-01T01:50:05.336Z,92.82
2024-01-01T01:52:32.347Z,93.01
2024-01-01T01:54:59.473Z,93.20
2024-01-01T01:57:27.680Z,93.31
2024-01-01T01:59:54.852Z,93.52
2024-01-01T02:02:24.869Z,93.33
2024-01-01T02:04:51.978Z,93.46
2024-01-01T02:07:18.984Z,93.37
2024-01-01T02:09:45.946Z,93.09
2024-01-01T02:12:12.781Z,93.42
2024-01-01T02:14:39.578Z,93.48
2024-01-01T02:17:06.617Z,93.37
2024-01-01T02:19:34.798Z,93.49
2024-01-01T02:22:03.023Z,93.15
2024-01-01T02:24:29.917Z,93.17
2024-01-01T02:26:56.748Z,93.30
2024-01-01T02:29:24.517Z,93.35
2024-01-01T02:31:51.771Z,92.88
2024-01-01T02:34:19.938Z,93.19
2024-01-01T02:36:46.729Z,92.99
2024-01-01T02:39:13.533Z,92.97
2024-01-01T02:41:41.063Z,92.92
2024-01-01T02:44:08.431Z,93.17
2024-01-01T02:46:35.625Z,92.79
2024-01-01T02:49:02.548Z,92.73
2024-01-01T02:51:29.376Z,92.44
2024-01-01T02:53:58.382Z,92.68
2024-01-01T02:56:25.628Z,93.33
2024-01-01T02:58:54.475Z,93.29
2024-01-01T03:01:21.768Z,92.95
2024-01-01T03:03:48.608Z,93.02
2024-01-01T03:06:19.519Z,93.54
2024-01-01T03:08:46.997Z,93.43
2024-01-01T03:11:14.080Z,92.76
2024-01-01T03:13:41.088Z,93.05
2024-01-01T03:16:09.338Z,93.29
2024-01-01T03:18:36.689Z,93.52
2024-01-01T03:21:05.062Z,93.21
2024-01-01T03:23:32.189Z,93.93
2024-01-01T03:25:59.198Z,93.73
2024-01-01T03:28:26.092Z,93.99
2024-01-01T03:30:53.464Z,94.04
2024-01-01T03:33:20.469Z,94.18
2024-01-01T03:35:47.407Z,94.49
2024-01-01T03:38:14.332Z,94.34
2024-01-01T03:40:41.914Z,94.34
2024-01-01T03:43:08.947Z,94.60
2024-01-01T03:45:35.928Z,94.89
2024-01-01T03:48:03.638Z,95.40
2024-01-01T03:50:30.747Z,95.29
2024-01-01T03:52:57.864Z,95.46
2024-01-01T03:55:24.838Z,95.26
2024-01-01T03:57:51.786Z,95.18
2024-01-01T04:00:18.880Z,94.85
2024-01-01T04:02:47.845Z,95.60
2024-01-01T04:05:15.046Z,95.44
2024-01-01T04:07:42.542Z,95.34
2024-01-01T04:10:10.801Z,95.81
2024-01-01T04:12:38.580Z,95.39
2024-01-01T04:15:06.674Z,95.88
2024-01-01T04:17:34.123Z,95.50
2024-01-01T04:20:01.220Z,96.03
2024-01-01T04:22:28.149Z,96.52
2024-01-01T04:24:55.140Z,95.94
2024-01-01T04:27:22.000Z,96.07
2024-01-01T04:29:49.478Z,95.92
2024-01-01T04:32:16.343Z,95.63
2024-01-01T04:34:43.200Z,95.70
2024-01-01T04:37:10.068Z,95.95
2024-01-01T04:39:36.900Z,95.70
2024-01-01T04:42:04.765Z,95.97
2024-01-01T04:44:31.786Z,95.99
2024-01-01T04:46:59.110Z,96.05
2024-01-01T04:49:26.018Z,95.91
2024-01-01T04:51:53.459Z,95.87
2024-01-01T04:54:20.340Z,96.20
2024-01-01T04:56:47.134Z,96.22
2024-01-01T04:59:14.462Z,96.13
2024-01-01T05:01:41.360Z,96.77
2024-01-01T05:04:08.302Z,96.43
2024-01-01T05:06:35.295Z,96.65
2024-01-01T05:09:02.098Z,96.78
2024-01-01T05:11:30.706Z,96.77
2024-01-01T05:13:58.093Z,96.61
2024-01-01T05:16:25.007Z,96.28
2024-01-01T05:18:52.108Z,96.51
2024-01-01T05:21:19.029Z,96.66
2024-01-01T05:23:45.950Z,96.95
2024-01-01T05:26:13.009Z,96.96
2024-01-01T05:28:40.180Z,96.92
2024-01-01T05:31:06.997Z,97.29
2024-01-01T05:33:35.075Z,96.75
2024-01-01T05:36:02.298Z,97.04
2024-01-01T05:38:29.949Z,97.43
2024-01-01T05:40:56.727Z,96.97
2024-01-01T05:43:23.933Z,97.54
2024-01-01T05:45:50.773Z,97.75
2024-01-01T05:48:25.693Z,97.72
2024-01-01T05:50:56.965Z,97.45
2024-01-01T05:53:23.857Z,97.33
2024-01-01T05:55:51.332Z,97.28
2024-01-01T05:58:19.252Z,97.71
2024-01-01T06:00:46.504Z,97.63
2024-01-01T06:03:13.653Z,97.65
2024-01-01T06:05:41.701Z,98.03
2024-01-01T06:08:08.899Z,97.93
2024-01-01T06:10:36.279Z,97.60
2024-01-01T06:13:04.067Z,98.00
2024-01-01T06:15:30.882Z,97.53
2024-01-01T06:17:58.021Z,97.95
2024-01-01T06:20:25.063Z,98.09
2024-01-01T06:22:51.969Z,97.73
2024-01-01T06:25:19.370Z,97.64
2024-01-01T06:27:46.619Z,97.80
2024-01-01T06:30:13.624Z,97.81
2024-01-01T06:32:40.559Z,98.19
2024-01-01T06:35:08.178Z,98.18
2024-01-01T06:37:35.214Z,97.97
2024-01-01T06:40:02.843Z,98.42
2024-01-01T06:42:29.888Z,98.41
2024-01-01T06:45:08.212Z,97.91
2024-01-01T06:47:35.295Z,98.05
2024-01-01T06:50:02.419Z,98.28
2024-01-01T06:52:29.383Z,98.18
2024-01-01T06:54:56.574Z,98.07
2024-01-01T06:57:23.390Z,97.76
2024-01-01T06:59:50.190Z,98.48
2024-01-01T07:02:17.218Z,98.57
2024-01-01T07:04:44.221Z,98.58
2024-01-01T07:07:11.830Z,98.91
2024-01-01T07:09:39.580Z,99.51
2024-01-01T07:12:21.612Z,99.57
2024-01-01T07:14:49.177Z,99.54
2024-01-01T07:17:16.946Z,99.35
2024-01-01T07:19:44.202Z,99.54
2024-01-01T07:22:11.392Z,99.41
2024-01-01T07:24:38.814Z,99.34
2024-01-01T07:27:06.484Z,99.54
2024-01-01T07:29:33.314Z,99.30
2024-01-01T07:32:00.245Z,99.76
2024-01-01T07:34:27.417Z,99.93
2024-01-01T07:36:56.353Z,100.00
2024-01-01T07:39:24.696Z,100.00
2024-01-01T07:41:54.840Z,100.00
2024-01-01T07:44:22.775Z,100.00
2024-01-01T07:46:50.361Z,100.00
2024-01-01T07:49:18.087Z,100.00
2024-01-01T07:51:45.137Z,100.00
2024-01-01T07:54:12.154Z,100.00
2024-01-01T07:56:44.939Z,100.00
2024-01-01T07:59:13.576Z,100.00
2024-01-01T08:01:41.720Z,100.00
2024-01-01T08:04:09.032Z,100.00
2024-01-01T08:06:37.582Z,100.00
2024-01-01T08:09:04.950Z,100.00
2024-01-01T08:11:32.006Z,100.00
2024-01-01T08:13:59.349Z,100.00
2024-01-01T08:16:27.101Z,100.00
2024-01-01T08:18:54.665Z,100.00
2024-01-01T08:21:22.641Z,100.00
2024-01-01T08:23:52.353Z,100.00
2024-01-01T08:26:20.960Z,100.00
2024-01-01T08:28:54.013Z,100.00
2024-01-01T08:31:21.974Z,100.00
2024-01-01T08:33:50.589Z,100.00
2024-01-01T08:36:17.927Z,100.00
2024-01-01T08:38:44.726Z,100.00
2024-01-01T08:41:13.032Z,100.00
2024-01-01T08:43:41.092Z,100.00
2024-01-01T08:46:07.875Z,100.00
2024-01-01T08:48:35.030Z,100.00
2024-01-01T08:51:02.650Z,100.00
2024-01-01T08:53:31.592Z,100.00
2024-01-01T08:56:00.136Z,100.00
2024-01-01T08:58:27.756Z,100.00
2024-01-01T09:00:54.637Z,100.00
2024-01-01T09:03:21.492Z,100.00
2024-01-01T09:05:48.517Z,100.00
2024-01-01T09:08:15.460Z,100.00
2024-01-01T09:10:42.377Z,100.00
2024-01-01T09:13:09.526Z,100.00
2024-01-01T09:15:36.373Z,99.69
2024-01-01T09:18:03.444Z,99.51
2024-01-01T09:20:30.839Z,99.28
2024-01-01T09:22:58.163Z,99.14
2024-01-01T09:25:25.097Z,99.17
2024-01-01T09:27:52.117Z,98.85
2024-01-01T09:30:19.063Z,98.86
2024-01-01T09:32:46.037Z,98.77
2024-01-01T09:35:13.198Z,98.76
2024-01-01T09:37:40.122Z,98.71
2024-01-01T09:40:07.824Z,98.37
2024-01-01T09:42:34.815Z,98.36
2024-01-01T09:45:04.535Z,97.94
2024-01-01T09:47:33.936Z,97.55
2024-01-01T09:50:01.192Z,97.71
2024-01-01T09:52:28.372Z,97.73
2024-01-01T09:54:55.565Z,97.74
2024-01-01T09:57:22.651Z,97.45
2024-01-01T09:59:49.502Z,97.30
2024-01-01T10:02:16.328Z,97.36
2024-01-01T10:04:44.118Z,96.95
2024-01-01T10:07:10.978Z,96.75
2024-01-01T10:09:50.728Z,96.62
2024-01-01T10:12:23.212Z,96.46
2024-01-01T10:14:51.802Z,96.50
2024-01-01T10:17:19.875Z,96.28
2024-01-01T10:19:57.931Z,96.34
2024-01-01T10:22:32.138Z,95.97
2024-01-01T10:25:13.989Z,96.33
2024-01-01T10:27:44.932Z,95.71
2024-01-01T10:30:12.699Z,95.60
2024-01-01T10:32:42.172Z,95.21
2024-01-01T10:35:11.510Z,95.21
2024-01-01T10:37:39.861Z,94.67
2024-01-01T10:40:09.050Z,94.50
2024-01-01T10:42:36.046Z,94.50
2024-01-01T10:45:06.608Z,94.00
2024-01-01T10:47:34.498Z,94.27
2024-01-01T10:50:31.836Z,94.00
2024-01-01T10:53:08.158Z,93.49
2024-01-01T10:55:53.335Z,93.68
2024-01-01T10:58:25.291Z,93.66
2024-01-01T11:01:12.596Z,94.06
2024-01-01T11:03:40.973Z,94.24
2024-01-01T11:06:32.930Z,93.60
2024-01-01T11:09:19.974Z,93.77
2024-01-01T11:11:47.980Z,94.32
2024-01-01T11:14:46.792Z,93.60
2024-01-01T11:17:23.794Z,93.62
2024-01-01T11:19:52.845Z,93.90
2024-01-01T11:22:32.742Z,93.89
2024-01-01T11:25:01.412Z,93.79
2024-01-01T11:27:35.719Z,94.08
2024-01-01T11:30:08.816Z,93.69
2024-01-01T11:32:36.785Z,94.01
2024-01-01T11:35:05.907Z,93.88
2024-01-01T11:37:34.010Z,93.57
2024-01-01T11:40:05.864Z,93.71
2024-01-01T11:42:33.224Z,93.78
2024-01-01T11:45:12.759Z,93.67
2024-01-01T11:47:41.218Z,93.77
2024-01-01T11:50:09.870Z,93.64
2024-01-01T11:52:37.204Z,93.62
2024-01-01T11:55:04.694Z,93.54
2024-01-01T11:57:31.939Z,93.60
2024-01-01T11:59:59.291Z,93.83
2024-01-01T12:02:26.721Z,93.67
2024-01-01T12:04:56.103Z,94.23
2024-01-01T12:07:30.870Z,94.11
2024-01-01T12:10:07.878Z,93.77
2024-01-01T12:12:40.319Z,94.24
2024-01-01T12:15:17.682Z,93.87
2024-01-01T12:17:49.513Z,93.80
2024-01-01T12:20:18.326Z,94.59
2024-01-01T12:22:46.528Z,94.11
2024-01-01T12:25:18.327Z,94.27
2024-01-01T12:27:46.299Z,94.25
2024-01-01T12:30:28.942Z,94.37
2024-01-01T12:32:56.092Z,94.29
2024-01-01T12:35:23.216Z,94.16
2024-01-01T12:37:51.396Z,94.67
2024-01-01T12:40:18.555Z,93.98
2024-01-01T12:42:46.140Z,94.49
2024-01-01T12:45:17.916Z,94.08
2024-01-01T12:47:45.015Z,94.62
2024-01-01T12:50:12.696Z,94.68
2024-01-01T12:52:40.170Z,94.70
2024-01-01T12:55:08.494Z,94.98
2024-01-01T12:57:35.201Z,94.61
2024-01-01T13:00:02.480Z,95.04
2024-01-01T13:02:29.939Z,95.55
2024-01-01T13:04:56.777Z,95.46
2024-01-01T13:07:24.040Z,95.14
2024-01-01T13:09:50.983Z,95.88
2024-01-01T13:12:18.233Z,95.52
2024-01-01T13:14:46.052Z,95.43
2024-01-01T13:17:13.487Z,96.02
2024-01-01T13:19:40.479Z,95.78
2024-01-01T13:22:09.378Z,95.34
2024-01-01T13:24:37.214Z,95.83
2024-01-01T13:27:04.608Z,95.83
2024-01-01T13:29:32.280Z,96.40
2024-01-01T13:31:59.055Z,95.70
2024-01-01T13:34:26.044Z,95.66
2024-01-01T13:36:53.335Z,96.01
2024-01-01T13:39:20.173Z,96.18
2024-01-01T13:41:47.844Z,96.16
2024-01-01T13:44:14.898Z,96.00
2024-01-01T13:46:42.020Z,96.06
2024-01-01T13:49:08.910Z,96.07
2024-01-01T13:51:35.919Z,96.11
2024-01-01T13:54:02.940Z,95.87
2024-01-01T13:56:29.751Z,96.25
2024-01-01T13:58:56.593Z,96.15
2024-01-01T14:01:23.460Z,96.03
2024-01-01T14:03:51.386Z,96.24
2024-01-01T14:06:18.408Z,96.50
2024-01-01T14:08:45.374Z,96.33
2024-01-01T14:11:12.687Z,96.47
2024-01-01T14:13:39.480Z,97.00
2024-01-01T14:16:06.400Z,96.55
2024-01-01T14:18:33.297Z,96.65
2024-01-01T14:21:00.119Z,96.86
2024-01-01T14:23:26.885Z,96.90
2024-01-01T14:25:54.368Z,96.96
2024-01-01T14:28:21.242Z,97.16
2024-01-01T14:30:52.849Z,96.78
2024-01-01T14:33:23.237Z,97.59
2024-01-01T14:35:50.122Z,97.42
2024-01-01T14:38:17.564Z,97.60
2024-01-01T14:40:44.810Z,97.37
2024-01-01T14:43:11.546Z,97.58
2024-01-01T14:45:38.332Z,97.61
2024-01-01T14:48:05.936Z,97.58
2024-01-01T14:50:39.845Z,97.86
2024-01-01T14:53:08.309Z,97.70
2024-01-01T14:55:36.692Z,97.68
2024-01-01T14:58:03.567Z,97.75
2024-01-01T15:00:31.437Z,97.44
2024-01-01T15:02:58.826Z,97.73
2024-01-01T15:05:27.395Z,97.63
2024-01-01T15:07:54.756Z,98.15
2024-01-01T15:10:21.492Z,97.86
2024-01-01T15:12:48.600Z,97.95
2024-01-01T15:15:16.244Z,98.18
2024-01-01T15:17:44.725Z,98.49
2024-01-01T15:20:12.430Z,98.30
2024-01-01T15:22:39.689Z,98.51
2024-01-01T15:25:06.613Z,98.68
2024-01-01T15:27:33.299Z,98.47
2024-01-01T15:30:00.509Z,98.70
2024-01-01T15:32:28.220Z,98.52
2024-01-01T15:34:55.248Z,98.75
2024-01-01T15:37:22.163Z,98.40
2024-01-01T15:39:49.025Z,98.91
2024-01-01T15:42:15.727Z,98.73
2024-01-01T15:44:42.710Z,98.80
2024-01-01T15:47:10.341Z,98.87
2024-01-01T15:49:37.241Z,98.92
2024-01-01T15:52:11.249Z,99.01
2024-01-01T15:54:41.429Z,99.18
2024-01-01T15:57:09.590Z,98.79
2024-01-01T15:59:37.067Z,99.15
2024-01-01T16:02:07.821Z,99.41
2024-01-01T16:04:37.532Z,99.45
2024-01-01T16:07:04.661Z,98.99
2024-01-01T16:09:31.761Z,99.33
2024-01-01T16:11:58.786Z,99.19
2024-01-01T16:14:26.002Z,99.32
2024-01-01T16:16:56.557Z,99.03
2024-01-01T16:19:33.198Z,99.32
2024-01-01T16:22:01.396Z,99.31
2024-01-01T16:24:28.287Z,99.30
2024-01-01T16:26:55.078Z,99.29
2024-01-01T16:29:21.899Z,99.29
2024-01-01T16:31:49.062Z,99.44
2024-01-01T16:34:16.221Z,99.30
2024-01-01T16:36:46.158Z,99.20
2024-01-01T16:39:15.822Z,99.48
2024-01-01T16:41:42.539Z,99.24
2024-01-01T16:44:10.037Z,99.32
2024-01-01T16:46:37.227Z,99.28
2024-01-01T16:49:04.030Z,99.25
2024-01-01T16:51:30.789Z,99.29
2024-01-01T16:53:57.960Z,99.32
2024-01-01T16:56:26.764Z,99.11
2024-01-01T16:58:53.981Z,99.23
2024-01-01T17:01:24.023Z,99.28
2024-01-01T17:03:50.903Z,99.03
2024-01-01T17:06:21.542Z,99.20
2024-01-01T17:08:49.057Z,99.24
2024-01-01T17:11:16.996Z,99.27
2024-01-01T17:13:44.802Z,99.05
2024-01-01T17:16:14.821Z,99.12
2024-01-01T17:18:44.276Z,99.09
2024-01-01T17:21:11.646Z,99.27
2024-01-01T17:23:39.116Z,99.15
2024-01-01T17:26:05.996Z,99.04
2024-01-01T17:28:34.914Z,99.14
2024-01-01T17:31:03.101Z,99.01
2024-01-01T17:33:29.923Z,99.21
2024-01-01T17:35:58.911Z,98.97
2024-01-01T17:38:26.380Z,99.07
2024-01-01T17:40:55.161Z,98.93
2024-01-01T17:43:22.828Z,98.91
2024-01-01T17:45:49.768Z,99.01
2024-01-01T17:48:16.608Z,99.01
2024-01-01T17:50:43.657Z,98.80
2024-01-01T17:53:10.915Z,98.80
2024-01-01T17:55:37.686Z,98.74
2024-01-01T17:58:04.464Z,98.59
2024-01-01T18:00:31.693Z,98.51
2024-01-01T18:02:58.841Z,98.78
2024-01-01T18:05:26.179Z,98.61
2024-01-01T18:07:53.629Z,98.63
2024-01-01T18:10:20.386Z,98.48
2024-01-01T18:12:47.457Z,98.44
2024-01-01T18:15:15.901Z,98.17
2024-01-01T18:17:43.316Z,98.56
2024-01-01T18:20:11.078Z,98.39
2024-01-01T18:22:39.306Z,98.36
2024-01-01T18:25:06.690Z,98.32
2024-01-01T18:27:35.198Z,98.25
2024-01-01T18:30:02.805Z,98.05
2024-01-01T18:32:31.332Z,98.00
2024-01-01T18:34:58.284Z,97.81
2024-01-01T18:37:25.143Z,98.10
2024-01-01T18:39:52.156Z,97.91
2024-01-01T18:42:18.955Z,97.89
2024-01-01T18:44:45.868Z,98.07
2024-01-01T18:47:12.755Z,97.80
2024-01-01T18:49:39.817Z,97.64
2024-01-01T18:52:07.128Z,97.67
2024-01-01T18:54:33.853Z,97.77
2024-01-01T18:57:00.664Z,97.73
2024-01-01T18:59:27.482Z,97.87
2024-01-01T19:01:54.865Z,97.99
2024-01-01T19:04:21.823Z,97.89
2024-01-01T19:06:48.948Z,97.73
2024-01-01T19:09:15.691Z,97.73
2024-01-01T19:11:43.160Z,97.84
2024-01-01T19:14:14.655Z,97.78
2024-01-01T19:16:41.953Z,97.67
2024-01-01T19:19:09.519Z,97.73
2024-01-01T19:21:43.315Z,97.81
2024-01-01T19:24:17.210Z,97.43
2024-01-01T19:26:47.711Z,97.51
2024-01-01T19:29:15.408Z,97.38
2024-01-01T19:31:43.635Z,97.40
2024-01-01T19:34:11.224Z,97.32
2024-01-01T19:36:38.343Z,97.32
2024-01-01T19:39:06.296Z,97.14
2024-01-01T19:41:33.609Z,97.34
2024-01-01T19:44:02.422Z,97.22
2024-01-01T19:46:29.553Z,97.30
2024-01-01T19:48:58.530Z,96.90
2024-01-01T19:51:25.635Z,96.91
2024-01-01T19:53:52.626Z,97.01
2024-01-01T19:56:26.635Z,96.83
2024-01-01T19:58:53.578Z,96.87
2024-01-01T20:01:20.969Z,96.69
2024-01-01T20:03:47.974Z,96.58
2024-01-01T20:06:14.891Z,96.55
2024-01-01T20:08:41.830Z,96.62
2024-01-01T20:11:09.331Z,96.34
2024-01-01T20:13:39.856Z,96.26
2024-01-01T20:16:06.927Z,96.36
2024-01-01T20:18:35.959Z,96.20
2024-01-01T20:21:02.918Z,96.24
2024-01-01T20:23:29.893Z,96.11
2024-01-01T20:25:56.788Z,95.93
2024-01-01T20:28:23.509Z,95.85
2024-01-01T20:30:50.461Z,95.89
2024-01-01T20:33:17.526Z,95.58
2024-01-01T20:35:44.318Z,95.70
2024-01-01T20:38:11.758Z,95.56
2024-01-01T20:40:38.529Z,95.72
2024-01-01T20:43:05.331Z,95.40
2024-01-01T20:45:32.291Z,95.57
2024-01-01T20:47:59.839Z,95.36
2024-01-01T20:50:26.736Z,95.13
2024-01-01T20:52:56.485Z,95.35
2024-01-01T20:55:25.432Z,95.12
2024-01-01T20:57:52.217Z,95.25
2024-01-01T21:00:19.904Z,95.25
2024-01-01T21:02:46.726Z,94.81
2024-01-01T21:05:14.405Z,94.92
2024-01-01T21:07:44.303Z,94.92
2024-01-01T21:10:11.918Z,94.90
2024-01-01T21:12:40.922Z,94.70
2024-01-01T21:15:13.002Z,94.79
2024-01-01T21:17:42.529Z,94.55
2024-01-01T21:20:10.334Z,94.65
2024-01-01T21:22:37.120Z,94.50
2024-01-01T21:25:04.818Z,94.35
2024-01-01T21:27:31.577Z,94.18
2024-01-01T21:29:58.425Z,94.31
2024-01-01T21:32:25.354Z,93.78
2024-01-01T21:34:52.532Z,93.98
2024-01-01T21:37:19.511Z,93.73
2024-01-01T21:39:46.419Z,93.85
2024-01-01T21:42:13.114Z,93.64
2024-01-01T21:44:39.864Z,93.63
2024-01-01T21:47:07.940Z,93.41
2024-01-01T21:49:34.686Z,93.35
2024-01-01T21:52:01.672Z,93.60
2024-01-01T21:54:28.739Z,93.22
2024-01-01T21:56:55.419Z,93.26
2024-01-01T21:59:22.306Z,93.42
2024-01-01T22:01:49.383Z,93.34
2024-01-01T22:04:16.271Z,93.40
2024-01-01T22:06:44.126Z,93.23
2024-01-01T22:09:11.744Z,93.18
2024-01-01T22:11:38.492Z,93.08
2024-01-01T22:14:05.350Z,93.10
2024-01-01T22:16:32.109Z,92.75
2024-01-01T22:18:58.940Z,92.84
2024-01-01T22:21:26.176Z,92.75
2024-01-01T22:23:52.976Z,92.73
2024-01-01T22:26:20.614Z,92.72
2024-01-01T22:28:47.951Z,92.66
2024-01-01T22:31:18.449Z,92.59
2024-01-01T22:33:45.453Z,92.64
2024-01-01T22:36:12.291Z,92.61
2024-01-01T22:38:44.274Z,92.80
2024-01-01T22:41:11.001Z,92.75
2024-01-01T22:43:37.817Z,92.69
2024-01-01T22:46:05.469Z,92.58
2024-01-01T22:48:33.110Z,92.65
2024-01-01T22:51:00.074Z,92.58
2024-01-01T22:53:27.226Z,92.60
2024-01-01T22:55:54.132Z,92.22
2024-01-01T22:58:20.977Z,92.30
2024-01-01T23:00:50.580Z,92.16
2024-01-01T23:03:17.402Z,92.19
2024-01-01T23:05:44.289Z,92.31
2024-01-01T23:08:11.290Z,92.07
2024-01-01T23:10:38.070Z,92.29
2024-01-01T23:13:04.999Z,92.20
2024-01-01T23:15:32.180Z,92.13
2024-01-01T23:18:01.112Z,92.25
2024-01-01T23:20:27.898Z,92.29
2024-01-01T23:22:56.264Z,92.13
2024-01-01T23:25:23.453Z,92.06
2024-01-01T23:27:50.979Z,91.93
2024-01-01T23:30:19.157Z,91.85
2024-01-01T23:32:47.063Z,92.04
2024-01-01T23:35:14.041Z,92.04
2024-01-01T23:37:41.740Z,91.86
2024-01-01T23:40:14.216Z,91.99
2024-01-01T23:42:40.963Z,92.15
2024-01-01T23:45:08.385Z,91.92
2024-01-01T23:47:35.285Z,91.98
2024-01-01T23:50:02.081Z,91.91
2024-01-01T23:52:29.046Z,91.83
2024-01-01T23:54:55.987Z,91.99
2024-01-01T23:57:22.728Z,91.77
2024-01-01T23:59:49.606Z,91.79
